Time;durP1;ratioP1;P1;durP2;ratioP2;P2;SDS_P1;SDS_P2;PMS_P1;PMS_P2;Temp;Humidity;BMP_temperature;BMP_pressure;BME280_temperature;BME280_humidity;BME280_pressure;Samples;Min_cycle;Max_cycle;Signal;HPM_P1;HPM_P2
2021/09/17 00:00:08;;;;;;;23.10;13.60;;;;;;;18.65;83.56;97974.84;115022;1214;22231;-75
2021/09/17 00:02:56;;;;;;;17.60;12.80;;;;;;;18.64;83.59;97972.23;115095;1212;22557;-75
2021/09/17 00:05:37;;;;;;;15.10;12.20;;;;;;;18.60;83.89;97974.77;115037;1214;22426;-75
2021/09/17 00:08:04;;;;;;;16.80;12.10;;;;;;;18.61;83.84;97976.58;115168;1206;22767;-75
2021/09/17 00:10:32;;;;;;;15.60;12.40;;;;;;;18.65;84.16;97977.39;115190;1212;23060;-75
2021/09/17 00:12:59;;;;;;;14.80;11.70;;;;;;;18.66;83.74;97980.66;115096;1214;22933;-75
2021/09/17 00:15:40;;;;;;;19.10;13.40;;;;;;;18.67;83.95;97977.67;115129;1214;23046;-75
2021/09/17 00:18:08;;;;;;;16.50;12.10;;;;;;;18.68;83.81;97973.79;115062;1213;22920;-75
2021/09/17 00:20:35;;;;;;;16.20;12.70;;;;;;;18.65;83.68;97965.78;115192;1212;22170;-75
2021/09/17 00:23:16;;;;;;;14.00;11.70;;;;;;;18.65;83.70;97962.43;115119;1212;22912;-75
2021/09/17 00:25:43;;;;;;;16.40;11.50;;;;;;;18.61;83.71;97964.77;115080;1214;22321;-75
2021/09/17 00:28:10;;;;;;;16.20;12.30;;;;;;;18.60;83.95;97963.74;115134;1212;22366;-75
2021/09/17 00:30:37;;;;;;;15.00;12.10;;;;;;;18.60;84.06;97968.10;115179;1212;22215;-75
2021/09/17 00:33:04;;;;;;;16.70;11.40;;;;;;;18.58;83.80;97964.34;115133;1212;22197;-75
2021/09/17 00:35:31;;;;;;;14.60;11.10;;;;;;;18.58;83.98;97966.39;115109;1212;22139;-75
2021/09/17 00:38:01;;;;;;;14.60;11.60;;;;;;;18.62;84.23;97964.70;115186;1212;22112;-75
2021/09/17 00:40:28;;;;;;;19.80;12.30;;;;;;;18.62;84.21;97963.64;115151;1212;22141;-75
2021/09/17 00:42:55;;;;;;;17.20;12.60;;;;;;;18.63;84.13;97965.83;115175;1212;22194;-75
2021/09/17 00:45:22;;;;;;;14.80;11.90;;;;;;;18.63;84.19;97955.56;115029;1214;22190;-75
2021/09/17 00:48:04;;;;;;;17.10;11.90;;;;;;;18.61;83.99;97948.05;115182;1212;22376;-75
2021/09/17 00:50:31;;;;;;;15.40;11.50;;;;;;;18.59;83.93;97942.42;115093;1215;22413;-75
2021/09/17 00:52:58;;;;;;;16.40;12.80;;;;;;;18.59;84.18;97940.09;115115;1212;22119;-75
2021/09/17 00:55:25;;;;;;;17.00;12.10;;;;;;;18.61;84.42;97934.98;115143;1205;22882;-76
2021/09/17 00:57:52;;;;;;;16.40;13.00;;;;;;;18.64;84.37;97939.51;115178;1212;22189;-75
2021/09/17 01:00:20;;;;;;;14.00;12.20;;;;;;;18.64;84.20;97932.70;115175;1212;22361;-75
2021/09/17 01:03:00;;;;;;;18.30;12.00;;;;;;;18.65;84.19;97928.55;115122;1212;22285;-75
2021/09/17 01:05:41;;;;;;;18.80;12.30;;;;;;;18.66;84.21;97923.18;115111;1212;23053;-75
2021/09/17 01:08:08;;;;;;;18.50;13.40;;;;;;;18.67;84.23;97924.26;115146;1212;22201;-75
2021/09/17 01:10:49;;;;;;;15.80;12.70;;;;;;;18.67;84.29;97920.69;115076;1213;22122;-75
2021/09/17 01:13:31;;;;;;;16.10;12.20;;;;;;;18.65;84.23;97909.35;115100;1214;22182;-75
2021/09/17 01:15:58;;;;;;;16.70;12.50;;;;;;;18.66;84.34;97910.11;115098;1214;22260;-75
2021/09/17 01:18:27;;;;;;;14.60;12.70;;;;;;;18.68;84.27;97906.98;115114;1214;22299;-75
2021/09/17 01:21:02;;;;;;;16.80;13.00;;;;;;;18.68;84.19;97901.45;115219;1215;22022;-75
2021/09/17 01:23:43;;;;;;;18.30;14.40;;;;;;;18.63;84.07;97902.55;115037;1214;22316;-75
2021/09/17 01:26:10;;;;;;;19.70;13.70;;;;;;;18.60;84.15;97896.94;115127;1213;22298;-75
2021/09/17 01:28:37;;;;;;;13.70;12.30;;;;;;;18.60;84.43;97895.55;115102;1214;22863;-75
2021/09/17 01:31:17;;;;;;;17.40;12.40;;;;;;;18.62;84.41;97896.63;115192;1215;22208;-75
2021/09/17 01:33:44;;;;;;;16.70;12.00;;;;;;;18.63;84.47;97890.64;115031;1214;22786;-75
2021/09/17 01:36:11;;;;;;;17.10;13.90;;;;;;;18.65;84.49;97886.70;115062;1215;22449;-75
2021/09/17 01:38:41;;;;;;;20.00;13.70;;;;;;;18.65;84.42;97882.00;115198;1206;22192;-75
2021/09/17 01:41:24;;;;;;;19.50;13.70;;;;;;;18.65;84.57;97877.36;115175;1212;22414;-75
2021/09/17 01:43:51;;;;;;;16.70;13.10;;;;;;;18.67;84.44;97875.80;115061;1212;22080;-75
2021/09/17 01:46:33;;;;;;;17.80;13.30;;;;;;;18.65;84.23;97872.73;115161;1214;22191;-75
2021/09/17 01:49:00;;;;;;;19.20;13.30;;;;;;;18.64;84.31;97870.60;115058;1213;22255;-75
2021/09/17 01:51:27;;;;;;;17.50;13.80;;;;;;;18.66;84.34;97870.00;115114;1212;22182;-75
2021/09/17 01:54:08;;;;;;;20.90;16.10;;;;;;;18.66;84.34;97868.64;115128;1212;22884;-75
2021/09/17 01:56:35;;;;;;;21.40;15.70;;;;;;;18.65;84.22;97866.06;115184;1205;22907;-75
2021/09/17 01:59:16;;;;;;;21.10;14.80;;;;;;;18.59;84.05;97869.06;115099;1212;22436;-75
2021/09/17 02:01:43;;;;;;;20.20;14.50;;;;;;;18.56;84.29;97858.89;115166;1212;22207;-75
2021/09/17 02:04:24;;;;;;;21.40;15.20;;;;;;;18.55;84.29;97858.78;115103;1212;22238;-75
2021/09/17 02:07:05;;;;;;;19.70;15.20;;;;;;;18.51;84.22;97854.64;115052;1212;22074;-75
2021/09/17 02:09:45;;;;;;;21.10;15.10;;;;;;;18.45;84.30;97850.04;115195;1212;22381;-75
2021/09/17 02:12:26;;;;;;;20.60;14.70;;;;;;;18.40;84.35;97850.58;115120;1213;22261;-75
2021/09/17 02:14:56;;;;;;;23.20;15.60;;;;;;;18.33;84.44;97849.61;115059;1206;22192;-75
2021/09/17 02:17:23;;;;;;;22.00;15.90;;;;;;;18.26;84.50;97849.71;115055;1215;22246;-75
2021/09/17 02:19:50;;;;;;;20.90;15.60;;;;;;;18.20;84.59;97846.68;115179;1205;22079;-75
2021/09/17 02:22:17;;;;;;;21.30;15.80;;;;;;;18.18;84.76;97845.30;115087;1213;22411;-75
2021/09/17 02:24:45;;;;;;;22.50;15.20;;;;;;;18.15;84.84;97842.55;114979;1215;22266;-75
2021/09/17 02:27:25;;;;;;;21.80;16.30;;;;;;;18.08;84.93;97837.41;115151;1212;22390;-75
2021/09/17 02:29:52;;;;;;;24.10;16.70;;;;;;;18.03;85.11;97834.88;115091;1214;22219;-75
2021/09/17 02:32:19;;;;;;;23.70;17.30;;;;;;;17.99;85.11;97836.84;115091;1213;22354;-75
2021/09/17 02:34:46;;;;;;;23.60;16.30;;;;;;;17.96;85.22;97835.65;115141;1212;22646;-75
2021/09/17 02:37:14;;;;;;;22.20;16.80;;;;;;;17.96;85.23;97830.96;115116;1214;22184;-75
2021/09/17 02:39:55;;;;;;;22.80;17.00;;;;;;;17.94;85.18;97826.98;115138;1213;22388;-75
2021/09/17 02:42:22;;;;;;;23.40;17.80;;;;;;;17.94;85.30;97826.23;115202;1219;22327;-75
2021/09/17 02:45:04;;;;;;;24.30;17.50;;;;;;;17.91;85.28;97823.80;115233;1212;22196;-75
2021/09/17 02:47:31;;;;;;;23.60;16.70;;;;;;;17.87;85.25;97823.04;115208;1212;22392;-75
2021/09/17 02:49:59;;;;;;;23.50;16.90;;;;;;;17.81;85.19;97819.03;115178;1214;23080;-75
2021/09/17 02:52:40;;;;;;;23.80;17.20;;;;;;;17.76;85.29;97818.59;115225;1212;22255;-75
2021/09/17 02:55:21;;;;;;;21.70;16.80;;;;;;;17.72;85.61;97817.29;115221;1212;22333;-75
2021/09/17 02:57:48;;;;;;;24.20;17.30;;;;;;;17.70;85.63;97815.74;115184;1212;22184;-74
2021/09/17 03:00:15;;;;;;;22.30;16.50;;;;;;;17.66;85.78;97815.15;115152;1212;22777;-75
2021/09/17 03:02:42;;;;;;;17.00;13.80;;;;;;;17.61;85.79;97813.44;115204;1212;23270;-75
2021/09/17 03:05:09;;;;;;;23.30;17.90;;;;;;;17.54;85.84;97816.73;115215;1212;22959;-75
2021/09/17 03:07:36;;;;;;;26.40;19.00;;;;;;;17.47;86.07;97811.80;115271;1207;22629;-75
2021/09/17 03:10:05;;;;;;;25.10;18.20;;;;;;;17.44;86.31;97817.20;115115;1215;22488;-75
2021/09/17 03:12:45;;;;;;;24.80;18.00;;;;;;;17.39;86.45;97810.08;115192;1212;22328;-75
2021/09/17 03:15:15;;;;;;;26.70;19.70;;;;;;;17.35;86.58;97806.63;115139;1215;22199;-76
2021/09/17 03:17:42;;;;;;;25.40;18.70;;;;;;;17.31;86.76;97804.14;115194;1212;22783;-75
2021/09/17 03:20:10;;;;;;;25.60;17.10;;;;;;;17.30;86.94;97800.30;115109;1215;22384;-75
2021/09/17 03:22:51;;;;;;;27.40;19.50;;;;;;;17.28;87.08;97801.44;115215;1212;22276;-75
2021/09/17 03:25:31;;;;;;;27.50;18.70;;;;;;;17.26;87.33;97803.29;115173;1212;22368;-75
2021/09/17 03:27:58;;;;;;;29.50;20.00;;;;;;;17.22;87.48;97801.11;115181;1215;22074;-75
2021/09/17 03:30:26;;;;;;;30.10;20.90;;;;;;;17.18;87.55;97801.17;115217;1212;22079;-75
2021/09/17 03:33:09;;;;;;;28.70;19.40;;;;;;;17.14;87.80;97798.78;115215;1212;22775;-75
2021/09/17 03:35:38;;;;;;;25.60;18.00;;;;;;;17.10;87.97;97796.88;115178;1212;22955;-75
2021/09/17 03:38:07;;;;;;;23.50;16.20;;;;;;;17.06;88.16;97793.37;115135;1212;22297;-75
2021/09/17 03:40:48;;;;;;;24.40;16.60;;;;;;;17.02;88.29;97790.30;115141;1213;22245;-75
2021/09/17 03:43:15;;;;;;;26.90;16.90;;;;;;;17.00;88.42;97789.70;115139;1212;22176;-75
2021/09/17 03:45:56;;;;;;;24.20;17.10;;;;;;;16.99;88.37;97789.29;115232;1212;22277;-75
2021/09/17 03:48:23;;;;;;;23.10;16.90;;;;;;;16.98;88.56;97788.80;115228;1212;22161;-75
2021/09/17 03:50:50;;;;;;;25.40;17.90;;;;;;;16.98;88.34;97789.23;115061;1206;22129;-75
2021/09/17 03:53:17;;;;;;;23.10;15.20;;;;;;;16.98;88.38;97788.14;115192;1212;23165;-75
2021/09/17 03:55:47;;;;;;;25.40;17.80;;;;;;;16.96;88.20;97788.05;115204;1212;22206;-75
2021/09/17 03:58:14;;;;;;;21.10;14.70;;;;;;;16.93;88.29;97787.94;115225;1212;22191;-75
2021/09/17 04:00:41;;;;;;;16.00;11.50;;;;;;;16.82;87.72;97791.86;115242;1212;22354;-75
2021/09/17 04:03:22;;;;;;;14.30;10.80;;;;;;;16.66;86.86;97792.08;115175;1215;22322;-75
2021/09/17 04:06:03;;;;;;;11.10;9.00;;;;;;;16.49;86.27;97790.27;115134;1214;23083;-75
2021/09/17 04:08:44;;;;;;;11.80;8.70;;;;;;;16.30;85.80;97793.33;115138;1212;22338;-75
2021/09/17 04:11:12;;;;;;;11.60;8.90;;;;;;;16.11;85.99;97796.74;115156;1215;22042;-75
2021/09/17 04:13:53;;;;;;;13.00;8.70;;;;;;;15.94;86.34;97798.64;115098;1213;22548;-75
2021/09/17 04:16:21;;;;;;;13.40;8.20;;;;;;;15.81;86.51;97802.00;115213;1213;22165;-75
2021/09/17 04:18:49;;;;;;;12.10;8.10;;;;;;;15.75;86.73;97804.60;115191;1214;22249;-76
2021/09/17 04:21:30;;;;;;;11.60;7.80;;;;;;;15.67;86.72;97811.00;115216;1212;22977;-76
2021/09/17 04:24:13;;;;;;;13.50;8.40;;;;;;;15.61;87.16;97813.50;115155;1214;22363;-76
2021/09/17 04:26:54;;;;;;;9.90;7.70;;;;;;;15.58;87.14;97815.11;115194;1212;22736;-76
2021/09/17 04:29:21;;;;;;;11.30;7.80;;;;;;;15.56;87.40;97811.24;115103;1215;22487;-76
2021/09/17 04:32:02;;;;;;;11.60;7.70;;;;;;;15.53;87.46;97808.09;115212;1218;22782;-76
2021/09/17 04:34:34;;;;;;;10.10;7.20;;;;;;;15.52;87.41;97805.15;115161;1212;22162;-75
2021/09/17 04:37:15;;;;;;;6.90;5.80;;;;;;;15.46;87.26;97804.40;115065;1212;23060;-75
2021/09/17 04:39:42;;;;;;;10.20;7.00;;;;;;;15.41;87.52;97805.11;115238;1212;23147;-75
2021/09/17 04:42:23;;;;;;;13.10;7.60;;;;;;;15.36;87.49;97806.59;115207;1215;22204;-75
2021/09/17 04:44:50;;;;;;;12.00;7.40;;;;;;;15.31;87.79;97806.48;115125;1212;22248;-76
2021/09/17 04:47:17;;;;;;;12.70;8.20;;;;;;;15.26;87.97;97805.89;115157;1212;22177;-76
2021/09/17 04:50:02;;;;;;;12.00;8.50;;;;;;;15.22;88.40;97802.91;115132;1214;22080;-76
2021/09/17 04:52:30;;;;;;;10.20;7.50;;;;;;;15.20;88.24;97796.34;115121;1215;22074;-76
2021/09/17 04:54:59;;;;;;;9.70;7.20;;;;;;;15.17;88.45;97791.79;115039;1214;22105;-76
2021/09/17 04:57:27;;;;;;;7.90;6.70;;;;;;;15.14;88.39;97792.10;115213;1213;22108;-76
2021/09/17 05:00:08;;;;;;;11.60;8.20;;;;;;;15.10;88.82;97795.59;115123;1214;22759;-76
2021/09/17 05:02:36;;;;;;;8.70;7.00;;;;;;;15.07;88.65;97795.89;115067;1206;22783;-76
2021/09/17 05:05:03;;;;;;;9.40;7.40;;;;;;;15.04;88.79;97796.75;115202;1212;22366;-76
2021/09/17 05:07:34;;;;;;;13.60;7.70;;;;;;;15.00;89.03;97802.72;115227;1212;22068;-76
2021/09/17 05:10:01;;;;;;;9.80;7.40;;;;;;;14.99;89.36;97800.14;115118;1212;22060;-76
2021/09/17 05:12:28;;;;;;;10.40;7.50;;;;;;;14.97;89.14;97801.42;115144;1212;22723;-76
2021/09/17 05:15:09;;;;;;;8.20;6.50;;;;;;;14.92;88.92;97800.92;115207;1212;22323;-76
2021/09/17 05:17:36;;;;;;;8.20;7.10;;;;;;;14.87;88.88;97801.25;115256;1212;22384;-76
2021/09/17 05:20:04;;;;;;;8.30;6.00;;;;;;;14.84;89.16;97799.14;115197;1212;22148;-76
2021/09/17 05:22:31;;;;;;;8.10;6.60;;;;;;;14.81;89.08;97802.64;115081;1216;22518;-76
2021/09/17 05:24:58;;;;;;;7.30;6.30;;;;;;;14.77;89.16;97805.03;115254;1212;22944;-76
2021/09/17 05:27:28;;;;;;;9.00;8.10;;;;;;;14.73;89.57;97802.48;115076;1206;22215;-76
2021/09/17 05:30:09;;;;;;;9.00;7.70;;;;;;;14.72;89.64;97803.98;115129;1212;22608;-76
2021/09/17 05:32:50;;;;;;;8.80;7.70;;;;;;;14.72;89.75;97806.82;115117;1215;22753;-76
2021/09/17 05:35:17;;;;;;;7.60;6.60;;;;;;;14.70;89.76;97808.93;115092;1215;22699;-76
2021/09/17 05:37:58;;;;;;;7.00;5.80;;;;;;;14.65;89.93;97805.95;115126;1212;22938;-75
2021/09/17 05:40:26;;;;;;;6.80;5.90;;;;;;;14.60;89.65;97808.52;115050;1212;22146;-75
2021/09/17 05:42:53;;;;;;;5.80;5.30;;;;;;;14.54;89.67;97809.30;115069;1213;22281;-75
2021/09/17 05:45:20;;;;;;;6.80;5.40;;;;;;;14.47;89.89;97807.67;115184;1212;22345;-75
2021/09/17 05:48:00;;;;;;;5.10;4.60;;;;;;;14.39;89.93;97814.08;115047;1212;23086;-75
2021/09/17 05:50:41;;;;;;;6.60;4.90;;;;;;;14.32;90.34;97813.20;115054;1213;22401;-75
2021/09/17 05:53:08;;;;;;;4.90;4.40;;;;;;;14.28;90.50;97811.70;115176;1212;22323;-75
2021/09/17 05:55:36;;;;;;;5.30;4.50;;;;;;;14.26;90.66;97815.88;114997;1215;23185;-75
2021/09/17 05:58:16;;;;;;;4.20;3.80;;;;;;;14.24;90.83;97816.87;115189;1212;22131;-75
2021/09/17 06:01:01;;;;;;;3.70;3.40;;;;;;;14.23;91.05;97817.27;115176;1213;22140;-75
2021/09/17 06:03:28;;;;;;;5.60;4.10;;;;;;;14.20;91.01;97812.70;115158;1212;22268;-76
2021/09/17 06:06:09;;;;;;;3.30;3.00;;;;;;;14.20;91.38;97812.34;115125;1213;22860;-76
2021/09/17 06:08:37;;;;;;;3.60;2.90;;;;;;;14.21;91.37;97814.48;115101;1219;22795;-76
2021/09/17 06:11:04;;;;;;;3.60;3.00;;;;;;;14.21;91.46;97817.82;115087;1212;22277;-76
2021/09/17 06:13:31;;;;;;;3.50;3.20;;;;;;;14.23;91.48;97819.77;115176;1212;22259;-76
2021/09/17 06:15:59;;;;;;;5.00;2.90;;;;;;;14.24;91.59;97819.56;115152;1212;22167;-76
2021/09/17 06:18:26;;;;;;;3.60;2.60;;;;;;;14.26;91.68;97818.67;115181;1212;22394;-75
2021/09/17 06:20:53;;;;;;;2.90;2.40;;;;;;;14.27;91.33;97819.38;115126;1212;22229;-75
2021/09/17 06:23:34;;;;;;;2.10;1.60;;;;;;;14.22;90.73;97822.41;115188;1212;22364;-75
2021/09/17 06:26:15;;;;;;;4.00;1.70;;;;;;;14.16;89.98;97817.14;115057;1212;22265;-76
2021/09/17 06:28:41;;;;;;;3.20;1.60;;;;;;;14.08;88.99;97816.59;115110;1213;22222;-75
2021/09/17 06:31:22;;;;;;;2.70;1.70;;;;;;;13.96;89.12;97815.19;115149;1212;22256;-75
2021/09/17 06:34:04;;;;;;;2.30;1.60;;;;;;;13.87;89.09;97811.52;115173;1212;22856;-75
2021/09/17 06:36:32;;;;;;;2.20;1.80;;;;;;;13.81;89.44;97811.07;115065;1212;22962;-75
2021/09/17 06:39:03;;;;;;;3.10;1.70;;;;;;;13.76;89.38;97817.48;115053;1215;22329;-75
2021/09/17 06:41:30;;;;;;;1.60;1.50;;;;;;;13.70;89.20;97820.26;115079;1214;22182;-75
2021/09/17 06:44:11;;;;;;;1.80;1.70;;;;;;;13.64;89.40;97822.92;115145;1212;23116;-75
2021/09/17 06:46:52;;;;;;;2.00;1.70;;;;;;;13.60;89.54;97825.13;115080;1214;22260;-75
2021/09/17 06:49:33;;;;;;;3.70;2.10;;;;;;;13.61;89.87;97831.90;115197;1212;22139;-75
2021/09/17 06:52:13;;;;;;;3.80;1.80;;;;;;;13.61;89.81;97841.64;115145;1212;23266;-75
2021/09/17 06:54:41;;;;;;;3.00;2.00;;;;;;;13.62;89.79;97846.17;115148;1213;22930;-75
2021/09/17 06:57:07;;;;;;;3.40;2.00;;;;;;;13.58;89.92;97850.58;115129;1213;22817;-75
2021/09/17 06:59:34;;;;;;;3.20;1.70;;;;;;;13.56;90.22;97857.91;115154;1213;22385;-75
2021/09/17 07:02:01;;;;;;;1.80;1.60;;;;;;;13.55;90.10;97863.88;114989;1214;22233;-75
2021/09/17 07:04:42;;;;;;;1.80;1.50;;;;;;;13.56;90.24;97872.80;115156;1212;22183;-75
2021/09/17 07:07:09;;;;;;;1.70;1.60;;;;;;;13.57;90.18;97873.72;115165;1212;22391;-75
2021/09/17 07:09:37;;;;;;;3.60;1.60;;;;;;;13.57;90.12;97882.76;115103;1214;22171;-74
2021/09/17 07:12:04;;;;;;;1.40;1.30;;;;;;;13.60;89.86;97888.88;115088;1214;22189;-74
2021/09/17 07:14:31;;;;;;;1.50;1.10;;;;;;;13.62;89.93;97893.17;115104;1212;22373;-74
2021/09/17 07:17:12;;;;;;;2.00;1.70;;;;;;;13.63;89.52;97899.91;115073;1214;23135;-74
2021/09/17 07:19:39;;;;;;;3.00;2.40;;;;;;;13.63;89.50;97909.77;115109;1213;22257;-74
2021/09/17 07:22:07;;;;;;;1.10;1.00;;;;;;;13.63;89.47;97910.54;115191;1212;22253;-74
2021/09/17 07:24:48;;;;;;;1.60;1.10;;;;;;;13.63;89.42;97914.70;115207;1212;22228;-74
2021/09/17 07:27:15;;;;;;;2.50;1.40;;;;;;;13.65;89.28;97918.23;115074;1214;22856;-74
2021/09/17 07:29:43;;;;;;;3.00;1.40;;;;;;;13.68;89.25;97922.66;115153;1212;22144;-74
2021/09/17 07:32:10;;;;;;;1.10;1.00;;;;;;;13.70;89.21;97924.25;115214;1214;22281;-74
2021/09/17 07:34:50;;;;;;;2.20;1.10;;;;;;;13.71;88.79;97925.83;115176;1213;22391;-74
2021/09/17 07:37:17;;;;;;;3.10;1.30;;;;;;;13.73;88.74;97928.99;115072;1214;22262;-74
2021/09/17 07:39:44;;;;;;;2.50;1.50;;;;;;;13.76;88.67;97932.92;115161;1214;22918;-74
2021/09/17 07:42:26;;;;;;;2.00;0.90;;;;;;;13.79;88.63;97939.87;115002;1213;22347;-74
2021/09/17 07:44:53;;;;;;;0.90;0.70;;;;;;;13.78;88.06;97939.92;115049;1214;22321;-74
2021/09/17 07:47:21;;;;;;;3.90;1.30;;;;;;;13.74;88.09;97941.20;115080;1212;22692;-74
2021/09/17 07:49:48;;;;;;;1.20;1.10;;;;;;;13.74;88.50;97945.08;115096;1218;22346;-74
2021/09/17 07:52:29;;;;;;;2.50;1.30;;;;;;;13.77;88.48;97948.02;115172;1213;22837;-74
2021/09/17 07:54:56;;;;;;;1.80;1.00;;;;;;;13.79;88.37;97948.41;115084;1214;22251;-74
2021/09/17 07:57:23;;;;;;;4.90;1.40;;;;;;;13.80;88.28;97951.04;115083;1214;22228;-74
2021/09/17 07:59:50;;;;;;;2.40;1.30;;;;;;;13.81;88.56;97954.09;115088;1219;22269;-74
2021/09/17 08:02:19;;;;;;;2.50;1.10;;;;;;;13.84;88.37;97954.41;115166;1214;22308;-74
2021/09/17 08:04:47;;;;;;;2.30;1.30;;;;;;;13.88;88.42;97951.64;115131;1212;22251;-74
2021/09/17 08:07:15;;;;;;;2.30;1.10;;;;;;;13.94;88.27;97952.73;115167;1214;22871;-74
2021/09/17 08:09:42;;;;;;;2.30;1.00;;;;;;;13.97;88.41;97954.69;115216;1214;22329;-74
2021/09/17 08:12:09;;;;;;;3.10;1.90;;;;;;;14.03;88.35;97953.63;115191;1218;22341;-74
2021/09/17 08:14:36;;;;;;;2.50;1.80;;;;;;;14.05;87.85;97951.86;115193;1212;22342;-74
2021/09/17 08:17:04;;;;;;;2.30;1.40;;;;;;;14.09;87.67;97953.83;114972;1214;22706;-74
2021/09/17 08:19:31;;;;;;;4.10;1.30;;;;;;;14.12;87.72;97957.16;115196;1214;22808;-74
2021/09/17 08:21:58;;;;;;;3.30;1.50;;;;;;;14.10;87.29;97954.05;115041;1214;22159;-74
2021/09/17 08:24:25;;;;;;;3.20;1.20;;;;;;;14.03;87.15;97956.04;115176;1212;22396;-74
2021/09/17 08:26:53;;;;;;;2.90;1.00;;;;;;;13.98;87.44;97961.91;115150;1213;22658;-74
2021/09/17 08:29:20;;;;;;;1.00;0.90;;;;;;;13.96;87.75;97964.11;115133;1212;22972;-74
2021/09/17 08:31:49;;;;;;;1.80;1.10;;;;;;;13.99;87.97;97963.73;115200;1216;22249;-74
2021/09/17 08:34:17;;;;;;;;;;;;;;;14.06;88.56;97965.98;115218;1214;22353;-74
2021/09/17 08:36:44;;;;;;;2.40;1.20;;;;;;;14.15;88.48;97962.66;115197;1212;22885;-74
2021/09/17 08:39:11;;;;;;;1.40;1.20;;;;;;;14.21;88.06;97962.09;115028;1214;22397;-74
2021/09/17 08:41:41;;;;;;;3.10;1.00;;;;;;;14.21;87.55;97962.97;115121;1213;22352;-74
2021/09/17 08:44:08;;;;;;;1.10;0.80;;;;;;;14.18;87.52;97966.27;115081;1213;22097;-75
2021/09/17 08:46:41;;;;;;;3.90;1.20;;;;;;;14.20;87.29;97964.40;115157;1210;22808;-75
2021/09/17 08:49:10;;;;;;;1.50;1.20;;;;;;;14.23;87.28;97966.20;115051;1212;22325;-75
2021/09/17 08:51:37;;;;;;;3.00;1.50;;;;;;;14.22;87.20;97966.69;115209;1212;22829;-75
2021/09/17 08:54:05;;;;;;;5.70;3.20;;;;;;;14.20;87.06;97968.67;115203;1212;22327;-74
2021/09/17 08:56:33;;;;;;;12.50;4.80;;;;;;;14.16;87.14;97971.21;115021;1214;23198;-74
2021/09/17 08:59:00;;;;;;;4.60;2.60;;;;;;;14.16;87.55;97972.41;115104;1212;22695;-74
2021/09/17 09:01:36;;;;;;;5.00;2.40;;;;;;;14.18;87.21;97973.44;115092;1212;22079;-73
2021/09/17 09:04:29;;;;;;;4.60;2.40;;;;;;;14.15;87.22;97972.52;115127;1213;23234;-72
2021/09/17 09:07:10;;;;;;;6.30;2.50;;;;;;;14.14;87.24;97971.16;115132;1215;22292;-75
2021/09/17 09:09:46;;;;;;;7.30;2.70;;;;;;;14.12;87.57;97973.25;115173;1214;22106;-75
2021/09/17 09:12:27;;;;;;;3.90;1.40;;;;;;;14.17;88.21;97973.29;115190;1212;22152;-74
2021/09/17 09:15:15;;;;;;;2.10;1.10;;;;;;;14.26;88.19;97974.66;115212;1212;22125;-74
2021/09/17 09:18:04;;;;;;;2.70;1.60;;;;;;;14.36;88.15;97972.92;115176;1213;22892;-74
2021/09/17 09:20:40;;;;;;;1.90;1.30;;;;;;;14.42;87.87;97977.55;115193;1218;22218;-74
2021/09/17 09:23:09;;;;;;;2.20;1.40;;;;;;;14.44;87.64;97977.98;115050;1214;22758;-75
2021/09/17 09:25:53;;;;;;;2.40;1.40;;;;;;;14.50;87.87;97978.83;115213;1212;22327;-74
2021/09/17 09:28:37;;;;;;;2.10;1.80;;;;;;;14.56;87.79;97973.15;115181;1212;22229;-75
2021/09/17 09:31:19;;;;;;;2.70;2.40;;;;;;;14.67;88.26;97975.91;115224;1212;22056;-75
2021/09/17 09:33:49;;;;;;;4.90;2.50;;;;;;;14.74;87.86;97975.10;115125;1213;22259;-75
2021/09/17 09:36:22;;;;;;;3.70;1.80;;;;;;;14.80;87.84;97973.24;115103;1214;22669;-75
2021/09/17 09:39:04;;;;;;;3.10;2.00;;;;;;;14.87;87.44;97973.15;115183;1214;22235;-75
2021/09/17 09:41:34;;;;;;;2.00;1.70;;;;;;;14.89;87.11;97973.73;115117;1214;22402;-75
2021/09/17 09:44:03;;;;;;;2.00;1.60;;;;;;;14.91;86.97;97973.55;115235;1212;22221;-75
2021/09/17 09:46:42;;;;;;;1.60;1.30;;;;;;;14.93;86.84;97969.05;115138;1212;22108;-75
2021/09/17 09:49:27;;;;;;;3.50;1.70;;;;;;;14.90;86.84;97967.48;115177;1219;22177;-75
2021/09/17 09:52:08;;;;;;;2.00;1.40;;;;;;;14.91;86.81;97968.73;115047;1214;22605;-74
2021/09/17 09:54:37;;;;;;;2.20;1.40;;;;;;;14.90;86.56;97966.81;115173;1212;22176;-74
2021/09/17 09:57:05;;;;;;;2.50;1.20;;;;;;;14.89;86.20;97966.77;115094;1214;22189;-74
2021/09/17 09:59:34;;;;;;;1.90;1.50;;;;;;;14.84;85.50;97964.40;115223;1212;23099;-74
2021/09/17 10:02:17;;;;;;;1.30;1.20;;;;;;;14.75;85.77;97963.24;115218;1212;22768;-74
2021/09/17 10:04:58;;;;;;;3.20;1.20;;;;;;;14.75;86.22;97964.12;115221;1212;22218;-74
2021/09/17 10:07:31;;;;;;;2.00;1.10;;;;;;;14.76;85.93;97960.99;115065;1214;22830;-75
2021/09/17 10:09:58;;;;;;;1.40;1.10;;;;;;;14.78;85.67;97962.95;115127;1214;22125;-74
2021/09/17 10:12:40;;;;;;;2.10;1.30;;;;;;;14.77;85.30;97967.02;115085;1214;22236;-75
2021/09/17 10:15:12;;;;;;;1.40;1.20;;;;;;;14.77;85.59;97967.61;115166;1212;22772;-75
2021/09/17 10:17:40;;;;;;;1.90;0.90;;;;;;;14.79;85.79;97967.01;115204;1214;22125;-75
2021/09/17 10:20:10;;;;;;;8.60;1.10;;;;;;;14.82;85.53;97964.89;115190;1213;22127;-75
2021/09/17 10:22:45;;;;;;;3.30;1.60;;;;;;;14.88;86.07;97967.59;115180;1214;22176;-75
2021/09/17 10:25:26;;;;;;;1.90;1.10;;;;;;;14.97;86.06;97965.02;115126;1214;22401;-75
2021/09/17 10:28:05;;;;;;;1.40;1.30;;;;;;;15.02;85.46;97962.56;115097;1214;22838;-75
2021/09/17 10:30:46;;;;;;;1.10;1.00;;;;;;;15.01;85.02;97957.64;115051;1214;23023;-74
2021/09/17 10:33:27;;;;;;;2.00;1.50;;;;;;;15.03;85.19;97960.08;115146;1213;22369;-75
2021/09/17 10:35:55;;;;;;;2.20;1.50;;;;;;;15.11;85.66;97957.55;115180;1214;22218;-75
2021/09/17 10:38:27;;;;;;;2.10;1.80;;;;;;;15.20;85.93;97955.01;115054;1214;22359;-75
2021/09/17 10:41:01;;;;;;;2.50;1.90;;;;;;;15.32;86.21;97953.42;115101;1213;22378;-75
2021/09/17 10:43:37;;;;;;;2.30;1.90;;;;;;;15.43;86.07;97953.27;115092;1214;22079;-75
2021/09/17 10:46:29;;;;;;;2.00;1.40;;;;;;;15.49;85.65;97948.86;115154;1214;22244;-75
2021/09/17 10:48:58;;;;;;;2.50;1.50;;;;;;;15.53;85.05;97953.00;115205;1212;23051;-75
2021/09/17 10:51:40;;;;;;;1.60;1.30;;;;;;;15.57;84.95;97954.73;115073;1212;22257;-75
2021/09/17 10:54:14;;;;;;;2.40;1.80;;;;;;;15.63;85.02;97951.80;115150;1212;22197;-75
2021/09/17 10:56:47;;;;;;;3.10;2.10;;;;;;;15.66;84.92;97948.80;115159;1212;22703;-75
2021/09/17 10:59:39;;;;;;;3.40;1.70;;;;;;;15.66;84.56;97953.52;115135;1214;22460;-75
2021/09/17 11:02:08;;;;;;;;;;;;;;;15.68;84.51;97950.43;115229;1214;22396;-76
2021/09/17 11:04:48;;;;;;;2.20;1.80;;;;;;;15.70;84.20;97947.94;115172;1213;22073;-76
2021/09/17 11:07:21;;;;;;;2.80;2.40;;;;;;;15.73;84.46;97945.65;115126;1214;22385;-75
2021/09/17 11:09:50;;;;;;;4.70;2.30;;;;;;;15.77;84.46;97946.58;115090;1219;22365;-75
2021/09/17 11:12:25;;;;;;;2.80;2.10;;;;;;;15.80;84.56;97946.17;115105;1214;22095;-75
2021/09/17 11:15:14;;;;;;;3.40;2.70;;;;;;;15.81;84.41;97944.77;115155;1214;22790;-76
2021/09/17 11:18:01;;;;;;;4.90;3.30;;;;;;;15.86;84.43;97940.81;115166;1214;22390;-75
2021/09/17 11:20:31;;;;;;;4.10;3.00;;;;;;;15.89;84.10;97947.75;115120;1214;22487;-75
2021/09/17 11:23:08;;;;;;;5.20;3.90;;;;;;;15.92;84.02;97943.45;115190;1214;22581;-75
2021/09/17 11:25:39;;;;;;;6.20;4.00;;;;;;;15.90;83.62;97942.91;115220;1214;22167;-76
2021/09/17 11:28:19;;;;;;;4.30;3.90;;;;;;;15.91;83.76;97940.10;115088;1213;22104;-76
2021/09/17 11:31:15;;;;;;;5.00;4.10;;;;;;;15.94;83.46;97937.20;115162;1212;22069;-76
2021/09/17 11:33:42;;;;;;;7.20;4.90;;;;;;;16.01;83.67;97934.00;115034;1212;22281;-76
2021/09/17 11:36:11;;;;;;;6.40;5.60;;;;;;;16.11;83.46;97932.60;115201;1212;22319;-76
2021/09/17 11:38:38;;;;;;;6.70;5.40;;;;;;;16.17;83.69;97928.73;115076;1212;22084;-76
2021/09/17 11:41:05;;;;;;;6.50;4.80;;;;;;;16.23;83.48;97929.20;115163;1212;22296;-76
2021/09/17 11:43:42;;;;;;;8.00;5.70;;;;;;;16.28;83.23;97925.45;115090;1214;22350;-76